sensor_id;sensor_type;location;lat;lon;timestamp;P1;durP1;ratioP1;P2;durP2;ratioP2
26594;SDS011;14238;49.496;8.154;2022-10-31T00:02:07;8.40;;;4.50;;
26594;SDS011;14238;49.496;8.154;2022-10-31T00:04:32;7.23;;;4.77;;
26594;SDS011;14238;49.496;8.154;2022-10-31T00:06:58;5.70;;;5.20;;
26594;SDS011;14238;49.496;8.154;2022-10-31T00:09:24;6.90;;;5.07;;
26594;SDS011;14238;49.496;8.154;2022-10-31T00:11:49;10.00;;;5.80;;
26594;SDS011;14238;49.496;8.154;2022-10-31T00:14:15;6.17;;;4.90;;
26594;SDS011;14238;49.496;8.154;2022-10-31T00:16:40;11.03;;;5.40;;
26594;SDS011;14238;49.496;8.154;2022-10-31T00:19:06;8.33;;;5.60;;
26594;SDS011;14238;49.496;8.154;2022-10-31T00:21:33;8.70;;;6.30;;
26594;SDS011;14238;49.496;8.154;2022-10-31T00:23:59;7.00;;;6.40;;
26594;SDS011;14238;49.496;8.154;2022-10-31T00:26:29;8.50;;;6.07;;
26594;SDS011;14238;49.496;8.154;2022-10-31T00:28:56;7.23;;;6.17;;
26594;SDS011;14238;49.496;8.154;2022-10-31T00:31:22;7.10;;;5.90;;
26594;SDS011;14238;49.496;8.154;2022-10-31T00:33:47;7.90;;;5.00;;
26594;SDS011;14238;49.496;8.154;2022-10-31T00:36:14;5.43;;;5.00;;
26594;SDS011;14238;49.496;8.154;2022-10-31T00:38:41;7.90;;;5.50;;
26594;SDS011;14238;49.496;8.154;2022-10-31T00:41:07;5.87;;;5.13;;
26594;SDS011;14238;49.496;8.154;2022-10-31T00:43:33;5.03;;;4.50;;
26594;SDS011;14238;49.496;8.154;2022-10-31T00:45:59;5.83;;;4.37;;
26594;SDS011;14238;49.496;8.154;2022-10-31T00:48:24;8.07;;;5.10;;
26594;SDS011;14238;49.496;8.154;2022-10-31T00:50:50;6.37;;;4.93;;
26594;SDS011;14238;49.496;8.154;2022-10-31T00:53:15;6.43;;;4.30;;
26594;SDS011;14238;49.496;8.154;2022-10-31T00:55:41;5.03;;;4.50;;
26594;SDS011;14238;49.496;8.154;2022-10-31T00:58:06;7.47;;;4.40;;
26594;SDS011;14238;49.496;8.154;2022-10-31T01:00:32;6.47;;;4.57;;
26594;SDS011;14238;49.496;8.154;2022-10-31T01:02:58;8.47;;;4.73;;
26594;SDS011;14238;49.496;8.154;2022-10-31T01:05:23;5.17;;;4.67;;
26594;SDS011;14238;49.496;8.154;2022-10-31T01:07:49;5.63;;;5.10;;
26594;SDS011;14238;49.496;8.154;2022-10-31T01:10:14;7.60;;;5.37;;
26594;SDS011;14238;49.496;8.154;2022-10-31T01:12:41;6.73;;;4.40;;
26594;SDS011;14238;49.496;8.154;2022-10-31T01:15:08;6.87;;;5.50;;
26594;SDS011;14238;49.496;8.154;2022-10-31T01:17:35;6.00;;;5.10;;
26594;SDS011;14238;49.496;8.154;2022-10-31T01:20:01;6.53;;;4.90;;
26594;SDS011;14238;49.496;8.154;2022-10-31T01:22:27;7.20;;;5.10;;
26594;SDS011;14238;49.496;8.154;2022-10-31T01:24:53;7.83;;;4.63;;
26594;SDS011;14238;49.496;8.154;2022-10-31T01:27:18;5.60;;;5.10;;
26594;SDS011;14238;49.496;8.154;2022-10-31T01:29:44;6.43;;;4.40;;
26594;SDS011;14238;49.496;8.154;2022-10-31T01:32:09;6.80;;;5.13;;
26594;SDS011;14238;49.496;8.154;2022-10-31T01:34:35;8.10;;;4.70;;
26594;SDS011;14238;49.496;8.154;2022-10-31T01:37:00;8.03;;;4.73;;
26594;SDS011;14238;49.496;8.154;2022-10-31T01:39:26;7.63;;;4.47;;
26594;SDS011;14238;49.496;8.154;2022-10-31T01:41:52;5.13;;;4.43;;
26594;SDS011;14238;49.496;8.154;2022-10-31T01:51:45;7.00;;;4.50;;
26594;SDS011;14238;49.496;8.154;2022-10-31T01:54:15;5.23;;;4.23;;
26594;SDS011;14238;49.496;8.154;2022-10-31T01:56:45;9.80;;;4.93;;
26594;SDS011;14238;49.496;8.154;2022-10-31T01:59:15;6.00;;;4.57;;
26594;SDS011;14238;49.496;8.154;2022-10-31T02:01:43;8.60;;;4.63;;
26594;SDS011;14238;49.496;8.154;2022-10-31T02:04:11;8.50;;;6.40;;
26594;SDS011;14238;49.496;8.154;2022-10-31T02:09:14;8.57;;;4.97;;
26594;SDS011;14238;49.496;8.154;2022-10-31T02:11:41;7.83;;;4.90;;
26594;SDS011;14238;49.496;8.154;2022-10-31T02:14:08;5.17;;;4.73;;
26594;SDS011;14238;49.496;8.154;2022-10-31T02:16:34;4.67;;;4.27;;
26594;SDS011;14238;49.496;8.154;2022-10-31T02:19:00;4.63;;;4.23;;
26594;SDS011;14238;49.496;8.154;2022-10-31T02:21:33;6.27;;;5.20;;
26594;SDS011;14238;49.496;8.154;2022-10-31T02:27:07;5.47;;;4.40;;
26594;SDS011;14238;49.496;8.154;2022-10-31T02:35:02;6.60;;;4.57;;
26594;SDS011;14238;49.496;8.154;2022-10-31T02:40:23;6.37;;;5.10;;
26594;SDS011;14238;49.496;8.154;2022-10-31T02:43:13;7.87;;;4.77;;
26594;SDS011;14238;49.496;8.154;2022-10-31T02:48:39;7.83;;;4.20;;
26594;SDS011;14238;49.496;8.154;2022-10-31T02:51:08;5.10;;;3.73;;
26594;SDS011;14238;49.496;8.154;2022-10-31T02:53:36;10.33;;;5.27;;
26594;SDS011;14238;49.496;8.154;2022-10-31T02:56:06;6.07;;;5.03;;
26594;SDS011;14238;49.496;8.154;2022-10-31T02:58:35;8.17;;;4.40;;
26594;SDS011;14238;49.496;8.154;2022-10-31T03:09:16;6.60;;;5.53;;
26594;SDS011;14238;49.496;8.154;2022-10-31T03:20:12;6.53;;;5.37;;
26594;SDS011;14238;49.496;8.154;2022-10-31T03:22:39;6.23;;;5.03;;
26594;SDS011;14238;49.496;8.154;2022-10-31T03:25:07;9.80;;;6.30;;
26594;SDS011;14238;49.496;8.154;2022-10-31T03:27:34;9.87;;;6.60;;
26594;SDS011;14238;49.496;8.154;2022-10-31T03:30:03;8.60;;;7.00;;
26594;SDS011;14238;49.496;8.154;2022-10-31T03:32:40;7.83;;;7.03;;
26594;SDS011;14238;49.496;8.154;2022-10-31T03:35:14;9.37;;;7.27;;
26594;SDS011;14238;49.496;8.154;2022-10-31T03:37:42;7.90;;;7.17;;
26594;SDS011;14238;49.496;8.154;2022-10-31T03:40:09;8.77;;;7.10;;
26594;SDS011;14238;49.496;8.154;2022-10-31T03:42:38;9.80;;;8.40;;
26594;SDS011;14238;49.496;8.154;2022-10-31T03:45:08;8.47;;;7.40;;
26594;SDS011;14238;49.496;8.154;2022-10-31T03:47:40;10.43;;;6.53;;
26594;SDS011;14238;49.496;8.154;2022-10-31T03:50:08;9.70;;;7.77;;
26594;SDS011;14238;49.496;8.154;2022-10-31T03:55:41;10.93;;;7.80;;
26594;SDS011;14238;49.496;8.154;2022-10-31T03:58:19;7.77;;;7.00;;
26594;SDS011;14238;49.496;8.154;2022-10-31T04:00:50;9.63;;;6.70;;
26594;SDS011;14238;49.496;8.154;2022-10-31T04:03:22;11.53;;;6.97;;
26594;SDS011;14238;49.496;8.154;2022-10-31T04:05:54;8.37;;;7.00;;
26594;SDS011;14238;49.496;8.154;2022-10-31T04:08:26;8.27;;;7.00;;
26594;SDS011;14238;49.496;8.154;2022-10-31T04:10:56;8.40;;;7.37;;
26594;SDS011;14238;49.496;8.154;2022-10-31T04:13:25;8.30;;;6.53;;
26594;SDS011;14238;49.496;8.154;2022-10-31T04:15:54;9.33;;;6.10;;
26594;SDS011;14238;49.496;8.154;2022-10-31T04:18:21;11.37;;;7.63;;
26594;SDS011;14238;49.496;8.154;2022-10-31T04:20:48;8.73;;;7.40;;
26594;SDS011;14238;49.496;8.154;2022-10-31T04:25:44;9.57;;;7.60;;
26594;SDS011;14238;49.496;8.154;2022-10-31T04:28:10;8.00;;;7.20;;
26594;SDS011;14238;49.496;8.154;2022-10-31T04:30:35;9.57;;;7.07;;
26594;SDS011;14238;49.496;8.154;2022-10-31T04:33:01;9.17;;;7.27;;
26594;SDS011;14238;49.496;8.154;2022-10-31T04:35:26;10.50;;;7.53;;
26594;SDS011;14238;49.496;8.154;2022-10-31T04:37:52;11.10;;;7.20;;
26594;SDS011;14238;49.496;8.154;2022-10-31T04:40:17;8.97;;;6.80;;
26594;SDS011;14238;49.496;8.154;2022-10-31T04:42:43;7.70;;;6.80;;
26594;SDS011;14238;49.496;8.154;2022-10-31T04:45:09;8.93;;;7.40;;
26594;SDS011;14238;49.496;8.154;2022-10-31T04:47:34;9.37;;;7.30;;
26594;SDS011;14238;49.496;8.154;2022-10-31T04:50:00;8.23;;;7.23;;
26594;SDS011;14238;49.496;8.154;2022-10-31T04:52:26;9.33;;;6.37;;
26594;SDS011;14238;49.496;8.154;2022-10-31T04:54:52;6.50;;;5.90;;
26594;SDS011;14238;49.496;8.154;2022-10-31T04:57:17;7.90;;;7.07;;
26594;SDS011;14238;49.496;8.154;2022-10-31T04:59:43;9.27;;;6.70;;
26594;SDS011;14238;49.496;8.154;2022-10-31T05:02:08;8.10;;;7.03;;
26594;SDS011;14238;49.496;8.154;2022-10-31T05:04:34;8.90;;;6.40;;
26594;SDS011;14238;49.496;8.154;2022-10-31T05:07:00;8.60;;;6.20;;
26594;SDS011;14238;49.496;8.154;2022-10-31T05:09:25;12.27;;;6.90;;
26594;SDS011;14238;49.496;8.154;2022-10-31T05:11:50;7.83;;;6.50;;
26594;SDS011;14238;49.496;8.154;2022-10-31T05:14:16;9.20;;;6.63;;
26594;SDS011;14238;49.496;8.154;2022-10-31T05:16:41;8.30;;;6.67;;
26594;SDS011;14238;49.496;8.154;2022-10-31T05:19:07;8.77;;;6.63;;
26594;SDS011;14238;49.496;8.154;2022-10-31T05:21:32;7.90;;;5.90;;
26594;SDS011;14238;49.496;8.154;2022-10-31T05:23:58;6.97;;;5.83;;
26594;SDS011;14238;49.496;8.154;2022-10-31T05:26:24;8.60;;;7.20;;
26594;SDS011;14238;49.496;8.154;2022-10-31T05:28:49;6.80;;;6.10;;
26594;SDS011;14238;49.496;8.154;2022-10-31T05:31:15;8.47;;;7.30;;
26594;SDS011;14238;49.496;8.154;2022-10-31T05:33:40;10.23;;;7.07;;
26594;SDS011;14238;49.496;8.154;2022-10-31T05:36:06;6.60;;;6.00;;
26594;SDS011;14238;49.496;8.154;2022-10-31T05:38:32;6.70;;;6.10;;
26594;SDS011;14238;49.496;8.154;2022-10-31T05:40:57;12.10;;;7.67;;
26594;SDS011;14238;49.496;8.154;2022-10-31T05:43:24;8.23;;;5.90;;
26594;SDS011;14238;49.496;8.154;2022-10-31T05:45:54;7.27;;;5.50;;
26594;SDS011;14238;49.496;8.154;2022-10-31T05:48:20;10.10;;;6.70;;
26594;SDS011;14238;49.496;8.154;2022-10-31T05:50:47;5.73;;;5.23;;
26594;SDS011;14238;49.496;8.154;2022-10-31T05:53:13;7.77;;;6.53;;
26594;SDS011;14238;49.496;8.154;2022-10-31T05:55:39;6.70;;;6.00;;
26594;SDS011;14238;49.496;8.154;2022-10-31T05:58:05;7.00;;;5.33;;
26594;SDS011;14238;49.496;8.154;2022-10-31T06:00:31;6.20;;;5.60;;
26594;SDS011;14238;49.496;8.154;2022-10-31T06:03:03;8.70;;;5.40;;
26594;SDS011;14238;49.496;8.154;2022-10-31T06:05:30;6.00;;;5.33;;
26594;SDS011;14238;49.496;8.154;2022-10-31T06:07:56;6.20;;;5.50;;
26594;SDS011;14238;49.496;8.154;2022-10-31T06:10:22;8.13;;;5.57;;
26594;SDS011;14238;49.496;8.154;2022-10-31T06:12:48;8.53;;;5.60;;
26594;SDS011;14238;49.496;8.154;2022-10-31T06:15:14;5.70;;;5.20;;
26594;SDS011;14238;49.496;8.154;2022-10-31T06:17:40;11.87;;;5.47;;
26594;SDS011;14238;49.496;8.154;2022-10-31T06:20:06;6.00;;;5.40;;
26594;SDS011;14238;49.496;8.154;2022-10-31T06:22:32;5.60;;;5.00;;
26594;SDS011;14238;49.496;8.154;2022-10-31T06:24:58;8.50;;;5.43;;
26594;SDS011;14238;49.496;8.154;2022-10-31T06:27:23;6.90;;;5.50;;
26594;SDS011;14238;49.496;8.154;2022-10-31T06:29:49;5.97;;;5.40;;
26594;SDS011;14238;49.496;8.154;2022-10-31T06:32:15;8.60;;;5.67;;
26594;SDS011;14238;49.496;8.154;2022-10-31T06:34:41;7.37;;;5.40;;
26594;SDS011;14238;49.496;8.154;2022-10-31T06:37:08;6.90;;;6.20;;
26594;SDS011;14238;49.496;8.154;2022-10-31T06:39:34;6.00;;;5.00;;
26594;SDS011;14238;49.496;8.154;2022-10-31T06:42:00;9.20;;;5.67;;
26594;SDS011;14238;49.496;8.154;2022-10-31T06:44:26;6.77;;;5.57;;
26594;SDS011;14238;49.496;8.154;2022-10-31T06:46:51;6.90;;;6.20;;
26594;SDS011;14238;49.496;8.154;2022-10-31T06:49:17;6.57;;;5.93;;
26594;SDS011;14238;49.496;8.154;2022-10-31T06:51:43;10.10;;;5.90;;
26594;SDS011;14238;49.496;8.154;2022-10-31T06:54:11;7.13;;;6.27;;
26594;SDS011;14238;49.496;8.154;2022-10-31T06:56:37;6.90;;;6.20;;
26594;SDS011;14238;49.496;8.154;2022-10-31T06:59:02;8.90;;;8.00;;
26594;SDS011;14238;49.496;8.154;2022-10-31T07:01:28;11.50;;;8.97;;
26594;SDS011;14238;49.496;8.154;2022-10-31T07:03:54;12.63;;;10.57;;
26594;SDS011;14238;49.496;8.154;2022-10-31T07:06:19;14.10;;;10.10;;
26594;SDS011;14238;49.496;8.154;2022-10-31T07:08:45;9.57;;;8.60;;
26594;SDS011;14238;49.496;8.154;2022-10-31T07:11:10;11.73;;;8.57;;
26594;SDS011;14238;49.496;8.154;2022-10-31T07:13:36;10.50;;;9.27;;
26594;SDS011;14238;49.496;8.154;2022-10-31T07:16:02;12.07;;;8.87;;
26594;SDS011;14238;49.496;8.154;2022-10-31T07:18:29;9.60;;;7.83;;
26594;SDS011;14238;49.496;8.154;2022-10-31T07:20:55;8.23;;;7.43;;
26594;SDS011;14238;49.496;8.154;2022-10-31T07:23:20;12.10;;;8.23;;
26594;SDS011;14238;49.496;8.154;2022-10-31T07:25:46;9.13;;;8.30;;
26594;SDS011;14238;49.496;8.154;2022-10-31T07:28:12;9.70;;;8.80;;
26594;SDS011;14238;49.496;8.154;2022-10-31T07:30:38;9.33;;;8.37;;
26594;SDS011;14238;49.496;8.154;2022-10-31T07:33:04;8.83;;;7.97;;
26594;SDS011;14238;49.496;8.154;2022-10-31T07:35:30;14.20;;;7.80;;
26594;SDS011;14238;49.496;8.154;2022-10-31T07:37:56;10.13;;;8.13;;
26594;SDS011;14238;49.496;8.154;2022-10-31T07:40:23;11.73;;;9.87;;
26594;SDS011;14238;49.496;8.154;2022-10-31T07:42:49;11.70;;;9.70;;
26594;SDS011;14238;49.496;8.154;2022-10-31T07:45:17;13.00;;;7.83;;
26594;SDS011;14238;49.496;8.154;2022-10-31T07:47:45;10.57;;;9.47;;
26594;SDS011;14238;49.496;8.154;2022-10-31T07:50:16;10.40;;;9.40;;
26594;SDS011;14238;49.496;8.154;2022-10-31T07:52:45;11.17;;;10.07;;
26594;SDS011;14238;49.496;8.154;2022-10-31T07:55:11;11.57;;;9.77;;
26594;SDS011;14238;49.496;8.154;2022-10-31T07:57:37;12.63;;;10.03;;
26594;SDS011;14238;49.496;8.154;2022-10-31T08:00:03;12.40;;;11.20;;
26594;SDS011;14238;49.496;8.154;2022-10-31T08:02:30;11.50;;;10.30;;
26594;SDS011;14238;49.496;8.154;2022-10-31T08:04:56;11.90;;;10.80;;
26594;SDS011;14238;49.496;8.154;2022-10-31T08:07:22;15.10;;;12.70;;
26594;SDS011;14238;49.496;8.154;2022-10-31T08:09:47;17.77;;;12.43;;
26594;SDS011;14238;49.496;8.154;2022-10-31T08:12:13;15.43;;;12.90;;
26594;SDS011;14238;49.496;8.154;2022-10-31T08:14:39;15.40;;;13.90;;
26594;SDS011;14238;49.496;8.154;2022-10-31T08:17:04;13.93;;;12.53;;
26594;SDS011;14238;49.496;8.154;2022-10-31T08:19:30;14.70;;;13.13;;
26594;SDS011;14238;49.496;8.154;2022-10-31T08:21:55;14.30;;;11.63;;
26594;SDS011;14238;49.496;8.154;2022-10-31T08:24:21;16.17;;;12.90;;
26594;SDS011;14238;49.496;8.154;2022-10-31T08:26:47;12.53;;;11.33;;
26594;SDS011;14238;49.496;8.154;2022-10-31T08:29:13;13.97;;;12.57;;
26594;SDS011;14238;49.496;8.154;2022-10-31T08:31:39;18.00;;;14.30;;
26594;SDS011;14238;49.496;8.154;2022-10-31T08:34:05;14.07;;;12.70;;
26594;SDS011;14238;49.496;8.154;2022-10-31T08:36:31;16.30;;;13.13;;
26594;SDS011;14238;49.496;8.154;2022-10-31T08:38:57;15.30;;;13.67;;
26594;SDS011;14238;49.496;8.154;2022-10-31T08:41:22;16.30;;;12.80;;
26594;SDS011;14238;49.496;8.154;2022-10-31T08:43:48;11.70;;;10.50;;
26594;SDS011;14238;49.496;8.154;2022-10-31T08:46:13;11.43;;;9.93;;
26594;SDS011;14238;49.496;8.154;2022-10-31T08:48:39;16.50;;;10.20;;
26594;SDS011;14238;49.496;8.154;2022-10-31T08:51:05;10.93;;;9.37;;
26594;SDS011;14238;49.496;8.154;2022-10-31T08:53:31;10.20;;;9.10;;
26594;SDS011;14238;49.496;8.154;2022-10-31T08:55:56;10.17;;;9.10;;
26594;SDS011;14238;49.496;8.154;2022-10-31T08:58:22;9.90;;;8.90;;
26594;SDS011;14238;49.496;8.154;2022-10-31T09:00:52;11.60;;;9.20;;
26594;SDS011;14238;49.496;8.154;2022-10-31T09:03:20;10.63;;;9.63;;
26594;SDS011;14238;49.496;8.154;2022-10-31T09:05:47;11.50;;;9.27;;
26594;SDS011;14238;49.496;8.154;2022-10-31T09:08:14;14.60;;;9.57;;
26594;SDS011;14238;49.496;8.154;2022-10-31T09:10:40;9.63;;;8.60;;
26594;SDS011;14238;49.496;8.154;2022-10-31T09:13:10;9.63;;;8.67;;
26594;SDS011;14238;49.496;8.154;2022-10-31T09:15:38;12.77;;;9.23;;
26594;SDS011;14238;49.496;8.154;2022-10-31T09:18:06;10.00;;;8.30;;
26594;SDS011;14238;49.496;8.154;2022-10-31T09:20:33;13.67;;;8.20;;
26594;SDS011;14238;49.496;8.154;2022-10-31T09:23:01;12.63;;;9.07;;
26594;SDS011;14238;49.496;8.154;2022-10-31T09:25:28;8.53;;;7.73;;
26594;SDS011;14238;49.496;8.154;2022-10-31T09:27:55;9.30;;;8.40;;
26594;SDS011;14238;49.496;8.154;2022-10-31T09:30:22;11.87;;;8.83;;
26594;SDS011;14238;49.496;8.154;2022-10-31T09:32:48;9.57;;;8.40;;
26594;SDS011;14238;49.496;8.154;2022-10-31T09:35:20;11.10;;;8.90;;
26594;SDS011;14238;49.496;8.154;2022-10-31T09:37:46;12.07;;;8.73;;
26594;SDS011;14238;49.496;8.154;2022-10-31T09:40:11;8.97;;;8.07;;
26594;SDS011;14238;49.496;8.154;2022-10-31T09:45:33;9.70;;;8.73;;
26594;SDS011;14238;49.496;8.154;2022-10-31T09:48:09;12.23;;;9.10;;
26594;SDS011;14238;49.496;8.154;2022-10-31T09:50:57;11.20;;;9.00;;
26594;SDS011;14238;49.496;8.154;2022-10-31T09:53:44;15.17;;;10.03;;
26594;SDS011;14238;49.496;8.154;2022-10-31T09:56:18;10.50;;;9.20;;
26594;SDS011;14238;49.496;8.154;2022-10-31T09:58:47;10.53;;;9.43;;
26594;SDS011;14238;49.496;8.154;2022-10-31T10:03:56;12.33;;;10.90;;
26594;SDS011;14238;49.496;8.154;2022-10-31T10:06:29;11.63;;;10.40;;
26594;SDS011;14238;49.496;8.154;2022-10-31T10:08:59;12.20;;;10.37;;
26594;SDS011;14238;49.496;8.154;2022-10-31T10:11:39;14.10;;;11.70;;
26594;SDS011;14238;49.496;8.154;2022-10-31T10:17:11;11.93;;;10.83;;
26594;SDS011;14238;49.496;8.154;2022-10-31T10:25:45;10.30;;;9.20;;
26594;SDS011;14238;49.496;8.154;2022-10-31T10:28:20;10.63;;;9.50;;
26594;SDS011;14238;49.496;8.154;2022-10-31T10:33:22;17.57;;;10.83;;
26594;SDS011;14238;49.496;8.154;2022-10-31T10:35:54;14.87;;;9.57;;
26594;SDS011;14238;49.496;8.154;2022-10-31T10:38:48;10.90;;;9.87;;
26594;SDS011;14238;49.496;8.154;2022-10-31T10:41:19;13.27;;;9.80;;
26594;SDS011;14238;49.496;8.154;2022-10-31T10:43:51;10.63;;;9.57;;
26594;SDS011;14238;49.496;8.154;2022-10-31T10:49:43;11.10;;;9.97;;
26594;SDS011;14238;49.496;8.154;2022-10-31T10:52:21;12.00;;;9.30;;
26594;SDS011;14238;49.496;8.154;2022-10-31T10:57:48;10.47;;;8.23;;
26594;SDS011;14238;49.496;8.154;2022-10-31T11:00:26;15.43;;;9.27;;
26594;SDS011;14238;49.496;8.154;2022-10-31T11:03:11;11.60;;;9.40;;
26594;SDS011;14238;49.496;8.154;2022-10-31T11:05:48;12.33;;;10.37;;
26594;SDS011;14238;49.496;8.154;2022-10-31T11:08:26;10.87;;;9.60;;
26594;SDS011;14238;49.496;8.154;2022-10-31T11:11:02;11.53;;;9.50;;
26594;SDS011;14238;49.496;8.154;2022-10-31T11:13:33;11.00;;;10.00;;
26594;SDS011;14238;49.496;8.154;2022-10-31T11:16:00;11.70;;;10.47;;
26594;SDS011;14238;49.496;8.154;2022-10-31T11:18:30;11.23;;;10.10;;
26594;SDS011;14238;49.496;8.154;2022-10-31T11:21:00;11.53;;;9.93;;
26594;SDS011;14238;49.496;8.154;2022-10-31T11:23:29;9.87;;;8.60;;
26594;SDS011;14238;49.496;8.154;2022-10-31T11:25:58;12.03;;;9.97;;
26594;SDS011;14238;49.496;8.154;2022-10-31T11:28:28;10.63;;;9.53;;
26594;SDS011;14238;49.496;8.154;2022-10-31T11:30:58;10.70;;;9.10;;
26594;SDS011;14238;49.496;8.154;2022-10-31T11:33:26;11.73;;;8.63;;
26594;SDS011;14238;49.496;8.154;2022-10-31T11:35:53;11.53;;;9.37;;
26594;SDS011;14238;49.496;8.154;2022-10-31T11:38:20;9.50;;;8.30;;
26594;SDS011;14238;49.496;8.154;2022-10-31T11:40:59;14.13;;;8.87;;
26594;SDS011;14238;49.496;8.154;2022-10-31T11:43:32;9.40;;;8.40;;
26594;SDS011;14238;49.496;8.154;2022-10-31T11:45:58;10.57;;;8.70;;
26594;SDS011;14238;49.496;8.154;2022-10-31T11:48:23;9.67;;;7.97;;
26594;SDS011;14238;49.496;8.154;2022-10-31T11:50:52;8.70;;;7.80;;
26594;SDS011;14238;49.496;8.154;2022-10-31T11:53:25;13.30;;;8.83;;
26594;SDS011;14238;49.496;8.154;2022-10-31T11:56:03;9.23;;;8.43;;
26594;SDS011;14238;49.496;8.154;2022-10-31T11:58:30;10.70;;;8.50;;
26594;SDS011;14238;49.496;8.154;2022-10-31T12:00:56;13.37;;;8.90;;
26594;SDS011;14238;49.496;8.154;2022-10-31T12:05:49;11.33;;;8.50;;
26594;SDS011;14238;49.496;8.154;2022-10-31T12:08:23;10.07;;;8.63;;
26594;SDS011;14238;49.496;8.154;2022-10-31T12:11:11;10.03;;;9.07;;
26594;SDS011;14238;49.496;8.154;2022-10-31T12:13:53;9.73;;;8.60;;
26594;SDS011;14238;49.496;8.154;2022-10-31T12:16:28;9.63;;;8.63;;
26594;SDS011;14238;49.496;8.154;2022-10-31T12:21:34;8.90;;;8.00;;
26594;SDS011;14238;49.496;8.154;2022-10-31T12:27:07;10.97;;;8.90;;
26594;SDS011;14238;49.496;8.154;2022-10-31T12:29:55;9.20;;;8.27;;
26594;SDS011;14238;49.496;8.154;2022-10-31T12:32:54;10.57;;;8.57;;
26594;SDS011;14238;49.496;8.154;2022-10-31T12:38:26;10.13;;;9.13;;
26594;SDS011;14238;49.496;8.154;2022-10-31T12:41:14;10.47;;;9.30;;
26594;SDS011;14238;49.496;8.154;2022-10-31T12:43:49;10.20;;;8.57;;
26594;SDS011;14238;49.496;8.154;2022-10-31T12:46:34;9.73;;;8.73;;
26594;SDS011;14238;49.496;8.154;2022-10-31T13:00:31;9.17;;;8.33;;
26594;SDS011;14238;49.496;8.154;2022-10-31T13:02:53;13.50;;;9.33;;
26594;SDS011;14238;49.496;8.154;2022-10-31T13:05:40;10.07;;;9.03;;
26594;SDS011;14238;49.496;8.154;2022-10-31T13:08:11;13.23;;;8.70;;
26594;SDS011;14238;49.496;8.154;2022-10-31T13:15:53;11.30;;;9.70;;
26594;SDS011;14238;49.496;8.154;2022-10-31T13:18:26;9.23;;;8.43;;
26594;SDS011;14238;49.496;8.154;2022-10-31T13:20:55;8.87;;;7.93;;
26594;SDS011;14238;49.496;8.154;2022-10-31T13:23:33;10.23;;;9.20;;
26594;SDS011;14238;49.496;8.154;2022-10-31T13:26:03;10.57;;;9.47;;
26594;SDS011;14238;49.496;8.154;2022-10-31T13:31:08;9.73;;;8.40;;
26594;SDS011;14238;49.496;8.154;2022-10-31T13:38:53;10.70;;;8.90;;
26594;SDS011;14238;49.496;8.154;2022-10-31T13:41:26;8.73;;;7.83;;
26594;SDS011;14238;49.496;8.154;2022-10-31T13:44:15;10.20;;;9.07;;
26594;SDS011;14238;49.496;8.154;2022-10-31T13:46:45;10.23;;;7.70;;
26594;SDS011;14238;49.496;8.154;2022-10-31T13:49:24;12.50;;;8.27;;
26594;SDS011;14238;49.496;8.154;2022-10-31T13:54:34;13.10;;;8.40;;
26594;SDS011;14238;49.496;8.154;2022-10-31T13:57:02;8.97;;;8.07;;
26594;SDS011;14238;49.496;8.154;2022-10-31T13:59:31;9.60;;;7.80;;
26594;SDS011;14238;49.496;8.154;2022-10-31T14:02:01;7.73;;;7.03;;
26594;SDS011;14238;49.496;8.154;2022-10-31T14:04:44;7.83;;;6.90;;
26594;SDS011;14238;49.496;8.154;2022-10-31T14:07:31;9.40;;;7.50;;
26594;SDS011;14238;49.496;8.154;2022-10-31T14:09:59;8.80;;;7.90;;
26594;SDS011;14238;49.496;8.154;2022-10-31T14:12:33;9.03;;;8.13;;
26594;SDS011;14238;49.496;8.154;2022-10-31T14:22:42;9.20;;;7.60;;
26594;SDS011;14238;49.496;8.154;2022-10-31T14:25:28;11.10;;;8.07;;
26594;SDS011;14238;49.496;8.154;2022-10-31T14:27:54;7.50;;;6.80;;
26594;SDS011;14238;49.496;8.154;2022-10-31T14:30:21;14.20;;;8.03;;
26594;SDS011;14238;49.496;8.154;2022-10-31T14:32:50;9.33;;;8.30;;
26594;SDS011;14238;49.496;8.154;2022-10-31T14:36:17;15.07;;;8.07;;
26594;SDS011;14238;49.496;8.154;2022-10-31T14:38:26;9.50;;;7.20;;
26594;SDS011;14238;49.496;8.154;2022-10-31T14:50:24;8.07;;;5.83;;
26594;SDS011;14238;49.496;8.154;2022-10-31T14:53:18;7.43;;;6.00;;
26594;SDS011;14238;49.496;8.154;2022-10-31T14:55:48;9.23;;;5.83;;
26594;SDS011;14238;49.496;8.154;2022-10-31T14:58:31;6.43;;;5.80;;
26594;SDS011;14238;49.496;8.154;2022-10-31T15:01:01;6.90;;;6.20;;
26594;SDS011;14238;49.496;8.154;2022-10-31T15:03:33;10.03;;;5.93;;
26594;SDS011;14238;49.496;8.154;2022-10-31T15:06:11;7.87;;;6.30;;
26594;SDS011;14238;49.496;8.154;2022-10-31T15:08:40;7.00;;;6.40;;
26594;SDS011;14238;49.496;8.154;2022-10-31T15:11:10;9.43;;;5.80;;
26594;SDS011;14238;49.496;8.154;2022-10-31T15:13:53;7.97;;;7.17;;
26594;SDS011;14238;49.496;8.154;2022-10-31T15:16:27;9.17;;;8.17;;
26594;SDS011;14238;49.496;8.154;2022-10-31T15:19:02;10.03;;;7.93;;
26594;SDS011;14238;49.496;8.154;2022-10-31T15:21:29;7.87;;;7.07;;
26594;SDS011;14238;49.496;8.154;2022-10-31T15:23:56;7.57;;;6.83;;
26594;SDS011;14238;49.496;8.154;2022-10-31T15:26:26;7.17;;;6.37;;
26594;SDS011;14238;49.496;8.154;2022-10-31T15:29:00;8.33;;;6.60;;
26594;SDS011;14238;49.496;8.154;2022-10-31T15:31:28;10.80;;;6.90;;
26594;SDS011;14238;49.496;8.154;2022-10-31T15:33:55;9.50;;;7.17;;
26594;SDS011;14238;49.496;8.154;2022-10-31T15:36:25;9.00;;;8.07;;
26594;SDS011;14238;49.496;8.154;2022-10-31T15:38:51;9.77;;;8.87;;
26594;SDS011;14238;49.496;8.154;2022-10-31T15:41:24;13.80;;;9.50;;
26594;SDS011;14238;49.496;8.154;2022-10-31T15:44:03;12.60;;;11.13;;
26594;SDS011;14238;49.496;8.154;2022-10-31T15:46:36;12.03;;;10.80;;
26594;SDS011;14238;49.496;8.154;2022-10-31T15:49:02;16.87;;;11.03;;
26594;SDS011;14238;49.496;8.154;2022-10-31T15:51:29;12.33;;;11.10;;
26594;SDS011;14238;49.496;8.154;2022-10-31T15:53:57;11.87;;;10.20;;
26594;SDS011;14238;49.496;8.154;2022-10-31T15:56:25;11.27;;;9.50;;
26594;SDS011;14238;49.496;8.154;2022-10-31T15:58:54;10.40;;;9.40;;
26594;SDS011;14238;49.496;8.154;2022-10-31T16:01:23;15.60;;;9.03;;
26594;SDS011;14238;49.496;8.154;2022-10-31T16:04:04;10.67;;;9.27;;
26594;SDS011;14238;49.496;8.154;2022-10-31T16:06:36;11.83;;;9.43;;
26594;SDS011;14238;49.496;8.154;2022-10-31T16:09:02;9.80;;;9.03;;
26594;SDS011;14238;49.496;8.154;2022-10-31T16:14:05;10.13;;;8.73;;
26594;SDS011;14238;49.496;8.154;2022-10-31T16:16:50;10.80;;;9.50;;
26594;SDS011;14238;49.496;8.154;2022-10-31T16:19:21;11.40;;;9.60;;
26594;SDS011;14238;49.496;8.154;2022-10-31T16:21:53;9.63;;;8.53;;
26594;SDS011;14238;49.496;8.154;2022-10-31T16:24:30;8.60;;;7.80;;
26594;SDS011;14238;49.496;8.154;2022-10-31T16:27:02;10.80;;;9.63;;
26594;SDS011;14238;49.496;8.154;2022-10-31T16:29:37;11.70;;;8.60;;
26594;SDS011;14238;49.496;8.154;2022-10-31T16:37:36;10.17;;;8.50;;
26594;SDS011;14238;49.496;8.154;2022-10-31T16:40:02;9.80;;;8.83;;
26594;SDS011;14238;49.496;8.154;2022-10-31T16:42:28;9.50;;;8.70;;
26594;SDS011;14238;49.496;8.154;2022-10-31T16:44:54;10.93;;;9.40;;
26594;SDS011;14238;49.496;8.154;2022-10-31T16:47:20;9.87;;;8.97;;
26594;SDS011;14238;49.496;8.154;2022-10-31T16:49:48;10.60;;;8.90;;
26594;SDS011;14238;49.496;8.154;2022-10-31T16:52:17;11.10;;;8.77;;
26594;SDS011;14238;49.496;8.154;2022-10-31T16:54:43;9.73;;;8.83;;
26594;SDS011;14238;49.496;8.154;2022-10-31T16:57:12;10.27;;;8.80;;
26594;SDS011;14238;49.496;8.154;2022-10-31T16:59:40;13.50;;;9.77;;
26594;SDS011;14238;49.496;8.154;2022-10-31T17:02:14;10.47;;;8.87;;
26594;SDS011;14238;49.496;8.154;2022-10-31T17:04:41;13.13;;;8.53;;
26594;SDS011;14238;49.496;8.154;2022-10-31T17:07:07;12.57;;;7.90;;